sensor_id;sensor_type;location;lat;lon;timestamp;P1;durP1;ratioP1;P2;durP2;ratioP2
47167;SDS011;32931;47.778;17.806;2023-11-19T00:00:11;11.40;;;8.73;;
47167;SDS011;32931;47.778;17.806;2023-11-19T00:02:38;13.73;;;9.38;;
47167;SDS011;32931;47.778;17.806;2023-11-19T00:05:05;12.43;;;9.77;;
47167;SDS011;32931;47.778;17.806;2023-11-19T00:07:37;13.95;;;9.68;;
47167;SDS011;32931;47.778;17.806;2023-11-19T00:12:42;13.32;;;9.80;;
47167;SDS011;32931;47.778;17.806;2023-11-19T00:15:10;13.32;;;9.70;;
47167;SDS011;32931;47.778;17.806;2023-11-19T00:17:37;13.88;;;8.88;;
47167;SDS011;32931;47.778;17.806;2023-11-19T00:20:10;13.27;;;9.15;;
47167;SDS011;32931;47.778;17.806;2023-11-19T00:22:44;11.85;;;8.57;;
47167;SDS011;32931;47.778;17.806;2023-11-19T00:25:16;11.23;;;8.32;;
47167;SDS011;32931;47.778;17.806;2023-11-19T00:27:45;14.40;;;9.23;;
47167;SDS011;32931;47.778;17.806;2023-11-19T00:30:11;13.18;;;9.05;;
47167;SDS011;32931;47.778;17.806;2023-11-19T00:32:39;11.60;;;8.88;;
47167;SDS011;32931;47.778;17.806;2023-11-19T00:35:07;10.93;;;8.48;;
47167;SDS011;32931;47.778;17.806;2023-11-19T00:37:40;12.80;;;8.95;;
47167;SDS011;32931;47.778;17.806;2023-11-19T00:40:08;13.18;;;9.25;;
47167;SDS011;32931;47.778;17.806;2023-11-19T00:42:36;10.40;;;8.07;;
47167;SDS011;32931;47.778;17.806;2023-11-19T00:45:02;13.75;;;8.77;;
47167;SDS011;32931;47.778;17.806;2023-11-19T00:47:33;12.70;;;8.88;;
47167;SDS011;32931;47.778;17.806;2023-11-19T00:50:01;13.35;;;9.23;;
47167;SDS011;32931;47.778;17.806;2023-11-19T00:52:28;14.85;;;8.75;;
47167;SDS011;32931;47.778;17.806;2023-11-19T00:54:54;12.23;;;8.77;;
47167;SDS011;32931;47.778;17.806;2023-11-19T00:57:20;11.15;;;8.52;;
47167;SDS011;32931;47.778;17.806;2023-11-19T00:59:46;9.95;;;7.72;;
47167;SDS011;32931;47.778;17.806;2023-11-19T01:02:13;12.32;;;8.18;;
47167;SDS011;32931;47.778;17.806;2023-11-19T01:04:39;12.20;;;8.32;;
47167;SDS011;32931;47.778;17.806;2023-11-19T01:07:05;14.48;;;8.55;;
47167;SDS011;32931;47.778;17.806;2023-11-19T01:09:32;12.88;;;8.00;;
47167;SDS011;32931;47.778;17.806;2023-11-19T01:12:00;12.85;;;8.18;;
47167;SDS011;32931;47.778;17.806;2023-11-19T01:14:27;11.98;;;7.60;;
47167;SDS011;32931;47.778;17.806;2023-11-19T01:16:54;11.93;;;7.93;;
47167;SDS011;32931;47.778;17.806;2023-11-19T01:19:23;10.00;;;7.72;;
47167;SDS011;32931;47.778;17.806;2023-11-19T01:21:50;13.63;;;8.02;;
47167;SDS011;32931;47.778;17.806;2023-11-19T01:24:17;14.48;;;8.60;;
47167;SDS011;32931;47.778;17.806;2023-11-19T01:26:43;11.70;;;8.57;;
47167;SDS011;32931;47.778;17.806;2023-11-19T01:29:13;14.02;;;9.32;;
47167;SDS011;32931;47.778;17.806;2023-11-19T01:31:40;13.57;;;9.05;;
47167;SDS011;32931;47.778;17.806;2023-11-19T01:34:10;14.27;;;8.50;;
47167;SDS011;32931;47.778;17.806;2023-11-19T01:36:37;13.88;;;9.32;;
47167;SDS011;32931;47.778;17.806;2023-11-19T01:39:04;15.93;;;10.10;;
47167;SDS011;32931;47.778;17.806;2023-11-19T01:41:34;17.70;;;12.15;;
47167;SDS011;32931;47.778;17.806;2023-11-19T01:44:01;31.98;;;18.10;;
47167;SDS011;32931;47.778;17.806;2023-11-19T01:46:27;37.67;;;20.83;;
47167;SDS011;32931;47.778;17.806;2023-11-19T01:48:55;38.28;;;21.67;;
47167;SDS011;32931;47.778;17.806;2023-11-19T01:51:21;37.85;;;21.42;;
47167;SDS011;32931;47.778;17.806;2023-11-19T01:53:48;33.28;;;19.75;;
47167;SDS011;32931;47.778;17.806;2023-11-19T01:56:15;25.77;;;15.48;;
47167;SDS011;32931;47.778;17.806;2023-11-19T01:58:41;19.80;;;12.13;;
47167;SDS011;32931;47.778;17.806;2023-11-19T02:01:12;15.48;;;10.82;;
47167;SDS011;32931;47.778;17.806;2023-11-19T02:03:39;12.80;;;10.13;;
47167;SDS011;32931;47.778;17.806;2023-11-19T02:06:06;13.57;;;10.73;;
47167;SDS011;32931;47.778;17.806;2023-11-19T02:08:33;13.52;;;10.13;;
47167;SDS011;32931;47.778;17.806;2023-11-19T02:10:59;13.35;;;9.88;;
47167;SDS011;32931;47.778;17.806;2023-11-19T02:13:25;13.15;;;9.80;;
47167;SDS011;32931;47.778;17.806;2023-11-19T02:15:52;14.90;;;10.00;;
47167;SDS011;32931;47.778;17.806;2023-11-19T02:18:24;13.77;;;9.77;;
47167;SDS011;32931;47.778;17.806;2023-11-19T02:20:55;10.63;;;9.05;;
47167;SDS011;32931;47.778;17.806;2023-11-19T02:23:28;12.70;;;9.52;;
47167;SDS011;32931;47.778;17.806;2023-11-19T02:25:59;12.73;;;9.95;;
47167;SDS011;32931;47.778;17.806;2023-11-19T02:28:35;13.20;;;9.57;;
47167;SDS011;32931;47.778;17.806;2023-11-19T02:31:02;14.20;;;9.60;;
47167;SDS011;32931;47.778;17.806;2023-11-19T02:33:30;15.70;;;9.95;;
47167;SDS011;32931;47.778;17.806;2023-11-19T02:35:56;13.35;;;10.48;;
47167;SDS011;32931;47.778;17.806;2023-11-19T02:38:22;12.77;;;10.23;;
47167;SDS011;32931;47.778;17.806;2023-11-19T02:40:48;13.98;;;10.00;;
47167;SDS011;32931;47.778;17.806;2023-11-19T02:43:15;14.25;;;10.75;;
47167;SDS011;32931;47.778;17.806;2023-11-19T02:45:41;13.25;;;10.38;;
47167;SDS011;32931;47.778;17.806;2023-11-19T02:48:11;14.57;;;10.98;;
47167;SDS011;32931;47.778;17.806;2023-11-19T02:50:37;14.35;;;11.00;;
47167;SDS011;32931;47.778;17.806;2023-11-19T02:53:03;15.88;;;11.00;;
47167;SDS011;32931;47.778;17.806;2023-11-19T02:55:29;14.32;;;11.73;;
47167;SDS011;32931;47.778;17.806;2023-11-19T02:58:01;16.85;;;12.57;;
47167;SDS011;32931;47.778;17.806;2023-11-19T03:00:30;16.00;;;11.40;;
47167;SDS011;32931;47.778;17.806;2023-11-19T03:03:03;15.70;;;11.73;;
47167;SDS011;32931;47.778;17.806;2023-11-19T03:05:43;19.95;;;11.35;;
47167;SDS011;32931;47.778;17.806;2023-11-19T03:08:10;16.70;;;11.95;;
47167;SDS011;32931;47.778;17.806;2023-11-19T03:10:36;20.05;;;12.50;;
47167;SDS011;32931;47.778;17.806;2023-11-19T03:13:02;16.75;;;11.90;;
47167;SDS011;32931;47.778;17.806;2023-11-19T03:15:28;14.90;;;11.00;;
47167;SDS011;32931;47.778;17.806;2023-11-19T03:17:54;13.60;;;10.95;;
47167;SDS011;32931;47.778;17.806;2023-11-19T03:20:20;14.73;;;11.15;;
47167;SDS011;32931;47.778;17.806;2023-11-19T03:22:46;14.27;;;11.05;;
47167;SDS011;32931;47.778;17.806;2023-11-19T03:25:12;18.30;;;11.60;;
47167;SDS011;32931;47.778;17.806;2023-11-19T03:27:39;16.30;;;11.30;;
47167;SDS011;32931;47.778;17.806;2023-11-19T03:30:07;16.13;;;11.98;;
47167;SDS011;32931;47.778;17.806;2023-11-19T03:32:37;14.57;;;11.30;;
47167;SDS011;32931;47.778;17.806;2023-11-19T03:35:04;15.90;;;10.88;;
47167;SDS011;32931;47.778;17.806;2023-11-19T03:37:34;14.60;;;11.23;;
47167;SDS011;32931;47.778;17.806;2023-11-19T03:40:01;16.98;;;10.48;;
47167;SDS011;32931;47.778;17.806;2023-11-19T03:42:28;16.23;;;10.65;;
47167;SDS011;32931;47.778;17.806;2023-11-19T03:44:58;14.82;;;11.02;;
47167;SDS011;32931;47.778;17.806;2023-11-19T03:47:24;16.38;;;12.48;;
47167;SDS011;32931;47.778;17.806;2023-11-19T03:49:50;17.08;;;12.02;;
47167;SDS011;32931;47.778;17.806;2023-11-19T03:52:17;16.98;;;12.82;;
47167;SDS011;32931;47.778;17.806;2023-11-19T03:54:44;19.27;;;12.82;;
47167;SDS011;32931;47.778;17.806;2023-11-19T03:57:11;19.27;;;13.32;;
47167;SDS011;32931;47.778;17.806;2023-11-19T03:59:38;19.15;;;12.68;;
47167;SDS011;32931;47.778;17.806;2023-11-19T04:02:05;19.73;;;12.50;;
47167;SDS011;32931;47.778;17.806;2023-11-19T04:04:32;18.85;;;13.63;;
47167;SDS011;32931;47.778;17.806;2023-11-19T04:06:58;20.13;;;12.32;;
47167;SDS011;32931;47.778;17.806;2023-11-19T04:09:26;14.35;;;12.20;;
47167;SDS011;32931;47.778;17.806;2023-11-19T04:11:52;16.35;;;12.10;;
47167;SDS011;32931;47.778;17.806;2023-11-19T04:14:18;17.17;;;11.68;;
47167;SDS011;32931;47.778;17.806;2023-11-19T04:16:44;16.67;;;11.02;;
47167;SDS011;32931;47.778;17.806;2023-11-19T04:19:11;16.30;;;11.15;;
47167;SDS011;32931;47.778;17.806;2023-11-19T04:21:39;14.18;;;11.45;;
47167;SDS011;32931;47.778;17.806;2023-11-19T04:24:07;15.43;;;10.23;;
47167;SDS011;32931;47.778;17.806;2023-11-19T04:26:34;13.73;;;10.80;;
47167;SDS011;32931;47.778;17.806;2023-11-19T04:29:02;14.05;;;10.75;;
47167;SDS011;32931;47.778;17.806;2023-11-19T04:31:31;14.63;;;10.68;;
47167;SDS011;32931;47.778;17.806;2023-11-19T04:33:57;12.95;;;10.25;;
47167;SDS011;32931;47.778;17.806;2023-11-19T04:36:26;13.48;;;9.77;;
47167;SDS011;32931;47.778;17.806;2023-11-19T04:38:52;14.25;;;10.63;;
47167;SDS011;32931;47.778;17.806;2023-11-19T04:41:18;13.70;;;10.38;;
47167;SDS011;32931;47.778;17.806;2023-11-19T04:43:45;15.27;;;10.85;;
47167;SDS011;32931;47.778;17.806;2023-11-19T04:46:11;13.23;;;10.00;;
47167;SDS011;32931;47.778;17.806;2023-11-19T04:48:37;13.48;;;9.68;;
47167;SDS011;32931;47.778;17.806;2023-11-19T04:51:06;13.10;;;10.70;;
47167;SDS011;32931;47.778;17.806;2023-11-19T04:53:35;11.50;;;8.90;;
47167;SDS011;32931;47.778;17.806;2023-11-19T04:56:11;13.63;;;10.57;;
47167;SDS011;32931;47.778;17.806;2023-11-19T04:58:39;15.13;;;10.70;;
47167;SDS011;32931;47.778;17.806;2023-11-19T05:01:06;16.05;;;11.05;;
47167;SDS011;32931;47.778;17.806;2023-11-19T05:03:38;14.95;;;11.68;;
47167;SDS011;32931;47.778;17.806;2023-11-19T05:06:05;14.40;;;9.88;;
47167;SDS011;32931;47.778;17.806;2023-11-19T05:08:32;13.45;;;10.07;;
47167;SDS011;32931;47.778;17.806;2023-11-19T05:10:58;11.60;;;9.85;;
47167;SDS011;32931;47.778;17.806;2023-11-19T05:13:24;13.07;;;10.27;;
47167;SDS011;32931;47.778;17.806;2023-11-19T05:15:50;13.30;;;9.70;;
47167;SDS011;32931;47.778;17.806;2023-11-19T05:18:17;12.43;;;10.02;;
47167;SDS011;32931;47.778;17.806;2023-11-19T05:20:44;12.52;;;9.18;;
47167;SDS011;32931;47.778;17.806;2023-11-19T05:23:11;11.18;;;9.32;;
47167;SDS011;32931;47.778;17.806;2023-11-19T05:25:37;11.55;;;9.25;;
47167;SDS011;32931;47.778;17.806;2023-11-19T05:28:03;14.43;;;9.70;;
47167;SDS011;32931;47.778;17.806;2023-11-19T05:30:29;10.00;;;8.90;;
47167;SDS011;32931;47.778;17.806;2023-11-19T05:32:55;17.00;;;9.85;;
47167;SDS011;32931;47.778;17.806;2023-11-19T05:35:22;13.23;;;9.52;;
47167;SDS011;32931;47.778;17.806;2023-11-19T05:37:48;13.73;;;9.15;;
47167;SDS011;32931;47.778;17.806;2023-11-19T05:40:15;16.90;;;10.07;;
47167;SDS011;32931;47.778;17.806;2023-11-19T05:42:43;13.07;;;9.10;;
47167;SDS011;32931;47.778;17.806;2023-11-19T05:45:10;14.23;;;9.63;;
47167;SDS011;32931;47.778;17.806;2023-11-19T05:47:37;13.80;;;9.75;;
47167;SDS011;32931;47.778;17.806;2023-11-19T05:50:03;13.45;;;8.90;;
47167;SDS011;32931;47.778;17.806;2023-11-19T05:52:31;12.73;;;9.25;;
47167;SDS011;32931;47.778;17.806;2023-11-19T05:55:00;11.77;;;8.73;;
47167;SDS011;32931;47.778;17.806;2023-11-19T05:57:29;11.05;;;9.07;;
47167;SDS011;32931;47.778;17.806;2023-11-19T05:59:55;12.82;;;8.85;;
47167;SDS011;32931;47.778;17.806;2023-11-19T06:02:22;13.20;;;9.77;;
47167;SDS011;32931;47.778;17.806;2023-11-19T06:04:48;11.68;;;9.10;;
47167;SDS011;32931;47.778;17.806;2023-11-19T06:07:14;12.00;;;9.25;;
47167;SDS011;32931;47.778;17.806;2023-11-19T06:09:40;12.50;;;9.38;;
47167;SDS011;32931;47.778;17.806;2023-11-19T06:12:07;15.20;;;9.23;;
47167;SDS011;32931;47.778;17.806;2023-11-19T06:14:34;13.45;;;9.05;;
47167;SDS011;32931;47.778;17.806;2023-11-19T06:17:00;11.10;;;8.55;;
47167;SDS011;32931;47.778;17.806;2023-11-19T06:19:26;14.30;;;9.93;;
47167;SDS011;32931;47.778;17.806;2023-11-19T06:21:52;13.05;;;9.68;;
47167;SDS011;32931;47.778;17.806;2023-11-19T06:24:18;11.95;;;8.50;;
47167;SDS011;32931;47.778;17.806;2023-11-19T06:26:44;10.85;;;8.65;;
47167;SDS011;32931;47.778;17.806;2023-11-19T06:29:10;12.05;;;9.05;;
47167;SDS011;32931;47.778;17.806;2023-11-19T06:31:36;12.68;;;9.13;;
47167;SDS011;32931;47.778;17.806;2023-11-19T06:34:06;11.40;;;8.93;;
47167;SDS011;32931;47.778;17.806;2023-11-19T06:36:32;12.10;;;8.38;;
47167;SDS011;32931;47.778;17.806;2023-11-19T06:38:59;13.70;;;9.45;;
47167;SDS011;32931;47.778;17.806;2023-11-19T06:41:25;14.48;;;9.05;;
47167;SDS011;32931;47.778;17.806;2023-11-19T06:43:52;12.88;;;9.15;;
47167;SDS011;32931;47.778;17.806;2023-11-19T06:46:18;12.38;;;9.38;;
47167;SDS011;32931;47.778;17.806;2023-11-19T06:48:44;11.63;;;9.15;;
47167;SDS011;32931;47.778;17.806;2023-11-19T06:51:11;11.48;;;9.07;;
47167;SDS011;32931;47.778;17.806;2023-11-19T06:53:38;12.82;;;9.13;;
47167;SDS011;32931;47.778;17.806;2023-11-19T06:58:45;12.05;;;9.18;;
47167;SDS011;32931;47.778;17.806;2023-11-19T07:01:13;14.23;;;9.32;;
47167;SDS011;32931;47.778;17.806;2023-11-19T07:03:40;14.40;;;9.43;;
47167;SDS011;32931;47.778;17.806;2023-11-19T07:06:07;14.68;;;9.23;;
47167;SDS011;32931;47.778;17.806;2023-11-19T07:08:34;11.38;;;8.85;;
47167;SDS011;32931;47.778;17.806;2023-11-19T07:11:00;10.88;;;8.82;;
47167;SDS011;32931;47.778;17.806;2023-11-19T07:13:26;11.48;;;8.95;;
47167;SDS011;32931;47.778;17.806;2023-11-19T07:15:55;18.10;;;8.98;;
47167;SDS011;32931;47.778;17.806;2023-11-19T07:18:21;12.70;;;9.00;;
47167;SDS011;32931;47.778;17.806;2023-11-19T07:20:48;13.55;;;9.07;;
47167;SDS011;32931;47.778;17.806;2023-11-19T07:23:14;10.63;;;8.82;;
47167;SDS011;32931;47.778;17.806;2023-11-19T07:25:42;10.88;;;8.82;;
47167;SDS011;32931;47.778;17.806;2023-11-19T07:28:12;13.07;;;9.50;;
47167;SDS011;32931;47.778;17.806;2023-11-19T07:30:39;11.57;;;9.32;;
47167;SDS011;32931;47.778;17.806;2023-11-19T07:33:05;16.20;;;9.32;;
47167;SDS011;32931;47.778;17.806;2023-11-19T07:35:31;14.05;;;9.75;;
47167;SDS011;32931;47.778;17.806;2023-11-19T07:37:58;14.65;;;9.32;;
47167;SDS011;32931;47.778;17.806;2023-11-19T07:40:24;16.13;;;9.40;;
47167;SDS011;32931;47.778;17.806;2023-11-19T07:42:50;13.82;;;10.10;;
47167;SDS011;32931;47.778;17.806;2023-11-19T07:45:16;14.13;;;10.68;;
47167;SDS011;32931;47.778;17.806;2023-11-19T07:47:43;14.10;;;10.23;;
47167;SDS011;32931;47.778;17.806;2023-11-19T07:50:12;13.98;;;9.65;;
47167;SDS011;32931;47.778;17.806;2023-11-19T07:52:42;15.43;;;10.57;;
47167;SDS011;32931;47.778;17.806;2023-11-19T07:55:08;12.73;;;10.32;;
47167;SDS011;32931;47.778;17.806;2023-11-19T07:57:34;15.70;;;11.43;;
47167;SDS011;32931;47.778;17.806;2023-11-19T08:00:00;15.95;;;10.88;;
47167;SDS011;32931;47.778;17.806;2023-11-19T08:02:27;16.88;;;11.55;;
47167;SDS011;32931;47.778;17.806;2023-11-19T08:04:54;16.48;;;10.95;;
47167;SDS011;32931;47.778;17.806;2023-11-19T08:07:21;19.38;;;11.27;;
47167;SDS011;32931;47.778;17.806;2023-11-19T08:09:47;16.17;;;10.43;;
47167;SDS011;32931;47.778;17.806;2023-11-19T08:12:14;16.15;;;12.52;;
47167;SDS011;32931;47.778;17.806;2023-11-19T08:14:41;12.30;;;9.98;;
47167;SDS011;32931;47.778;17.806;2023-11-19T08:17:12;17.48;;;10.30;;
47167;SDS011;32931;47.778;17.806;2023-11-19T08:19:38;15.52;;;10.43;;
47167;SDS011;32931;47.778;17.806;2023-11-19T08:22:04;12.73;;;10.80;;
47167;SDS011;32931;47.778;17.806;2023-11-19T08:24:31;14.27;;;10.40;;
47167;SDS011;32931;47.778;17.806;2023-11-19T08:26:57;14.02;;;11.07;;
47167;SDS011;32931;47.778;17.806;2023-11-19T08:29:25;14.63;;;11.25;;
47167;SDS011;32931;47.778;17.806;2023-11-19T08:31:51;13.85;;;10.80;;
47167;SDS011;32931;47.778;17.806;2023-11-19T08:34:17;16.42;;;10.85;;
47167;SDS011;32931;47.778;17.806;2023-11-19T08:36:43;13.60;;;10.25;;
47167;SDS011;32931;47.778;17.806;2023-11-19T08:39:09;12.18;;;10.00;;
47167;SDS011;32931;47.778;17.806;2023-11-19T08:41:35;13.85;;;10.82;;
47167;SDS011;32931;47.778;17.806;2023-11-19T08:44:03;14.73;;;10.40;;
47167;SDS011;32931;47.778;17.806;2023-11-19T08:46:29;12.38;;;9.20;;
47167;SDS011;32931;47.778;17.806;2023-11-19T08:48:55;15.98;;;9.05;;
47167;SDS011;32931;47.778;17.806;2023-11-19T08:51:23;13.30;;;9.20;;
47167;SDS011;32931;47.778;17.806;2023-11-19T08:53:50;14.82;;;8.52;;
47167;SDS011;32931;47.778;17.806;2023-11-19T08:56:16;11.88;;;8.45;;
47167;SDS011;32931;47.778;17.806;2023-11-19T08:58:42;14.20;;;11.25;;
47167;SDS011;32931;47.778;17.806;2023-11-19T09:01:08;21.13;;;15.15;;
47167;SDS011;32931;47.778;17.806;2023-11-19T09:03:35;23.38;;;15.48;;
47167;SDS011;32931;47.778;17.806;2023-11-19T09:06:02;17.55;;;13.90;;
47167;SDS011;32931;47.778;17.806;2023-11-19T09:08:28;19.90;;;13.55;;
47167;SDS011;32931;47.778;17.806;2023-11-19T09:10:55;15.00;;;11.93;;
47167;SDS011;32931;47.778;17.806;2023-11-19T09:13:21;16.13;;;10.57;;
47167;SDS011;32931;47.778;17.806;2023-11-19T09:15:47;14.50;;;10.65;;
47167;SDS011;32931;47.778;17.806;2023-11-19T09:18:13;12.60;;;10.25;;
47167;SDS011;32931;47.778;17.806;2023-11-19T09:20:39;18.98;;;10.30;;
47167;SDS011;32931;47.778;17.806;2023-11-19T09:23:05;16.77;;;10.43;;
47167;SDS011;32931;47.778;17.806;2023-11-19T09:25:33;17.13;;;10.70;;
47167;SDS011;32931;47.778;17.806;2023-11-19T09:27:59;14.50;;;10.88;;
47167;SDS011;32931;47.778;17.806;2023-11-19T09:30:25;14.30;;;11.10;;
47167;SDS011;32931;47.778;17.806;2023-11-19T09:32:51;17.35;;;11.00;;
47167;SDS011;32931;47.778;17.806;2023-11-19T09:35:17;16.95;;;11.23;;
47167;SDS011;32931;47.778;17.806;2023-11-19T09:37:43;18.63;;;12.38;;
47167;SDS011;32931;47.778;17.806;2023-11-19T09:40:10;15.48;;;11.55;;
47167;SDS011;32931;47.778;17.806;2023-11-19T09:42:42;17.10;;;11.48;;
47167;SDS011;32931;47.778;17.806;2023-11-19T09:45:12;16.58;;;11.10;;
47167;SDS011;32931;47.778;17.806;2023-11-19T09:47:44;16.15;;;10.95;;
47167;SDS011;32931;47.778;17.806;2023-11-19T09:50:14;14.07;;;10.30;;
47167;SDS011;32931;47.778;17.806;2023-11-19T09:52:45;19.75;;;12.68;;
47167;SDS011;32931;47.778;17.806;2023-11-19T09:55:12;14.18;;;10.43;;
47167;SDS011;32931;47.778;17.806;2023-11-19T09:57:39;13.52;;;9.77;;
47167;SDS011;32931;47.778;17.806;2023-11-19T10:00:09;13.75;;;10.25;;
47167;SDS011;32931;47.778;17.806;2023-11-19T10:02:37;13.68;;;9.88;;
47167;SDS011;32931;47.778;17.806;2023-11-19T10:05:06;15.48;;;9.57;;
47167;SDS011;32931;47.778;17.806;2023-11-19T10:07:32;12.43;;;9.55;;
47167;SDS011;32931;47.778;17.806;2023-11-19T10:09:59;10.82;;;8.95;;
47167;SDS011;32931;47.778;17.806;2023-11-19T10:12:27;11.60;;;9.55;;
47167;SDS011;32931;47.778;17.806;2023-11-19T10:14:54;16.23;;;9.85;;
47167;SDS011;32931;47.778;17.806;2023-11-19T10:17:29;11.45;;;9.40;;
47167;SDS011;32931;47.778;17.806;2023-11-19T10:19:58;13.63;;;9.10;;
47167;SDS011;32931;47.778;17.806;2023-11-19T10:22:25;12.75;;;8.63;;
47167;SDS011;32931;47.778;17.806;2023-11-19T10:24:52;12.15;;;8.82;;
47167;SDS011;32931;47.778;17.806;2023-11-19T10:27:18;12.05;;;9.15;;
47167;SDS011;32931;47.778;17.806;2023-11-19T10:29:47;13.48;;;8.80;;
47167;SDS011;32931;47.778;17.806;2023-11-19T10:32:14;12.82;;;9.55;;
47167;SDS011;32931;47.778;17.806;2023-11-19T10:34:40;11.63;;;8.75;;
47167;SDS011;32931;47.778;17.806;2023-11-19T10:37:07;12.35;;;8.70;;
47167;SDS011;32931;47.778;17.806;2023-11-19T10:39:51;15.63;;;8.73;;
47167;SDS011;32931;47.778;17.806;2023-11-19T10:42:20;16.50;;;8.93;;
47167;SDS011;32931;47.778;17.806;2023-11-19T10:44:46;12.70;;;8.25;;
47167;SDS011;32931;47.778;17.806;2023-11-19T10:47:15;10.63;;;8.13;;
47167;SDS011;32931;47.778;17.806;2023-11-19T10:49:45;14.88;;;8.73;;
47167;SDS011;32931;47.778;17.806;2023-11-19T10:52:11;12.60;;;8.38;;
47167;SDS011;32931;47.778;17.806;2023-11-19T10:54:48;13.63;;;8.38;;
47167;SDS011;32931;47.778;17.806;2023-11-19T10:57:19;15.18;;;8.35;;
47167;SDS011;32931;47.778;17.806;2023-11-19T10:59:47;13.25;;;8.50;;
47167;SDS011;32931;47.778;17.806;2023-11-19T11:02:16;13.02;;;7.85;;
47167;SDS011;32931;47.778;17.806;2023-11-19T11:04:47;11.32;;;8.48;;
47167;SDS011;32931;47.778;17.806;2023-11-19T11:07:15;10.65;;;8.23;;
47167;SDS011;32931;47.778;17.806;2023-11-19T11:09:44;12.02;;;8.15;;
47167;SDS011;32931;47.778;17.806;2023-11-19T11:12:11;12.27;;;7.63;;
47167;SDS011;32931;47.778;17.806;2023-11-19T11:14:38;10.88;;;8.10;;
47167;SDS011;32931;47.778;17.806;2023-11-19T11:17:08;11.48;;;8.45;;
47167;SDS011;32931;47.778;17.806;2023-11-19T11:19:36;10.50;;;8.23;;
47167;SDS011;32931;47.778;17.806;2023-11-19T11:22:03;9.93;;;7.75;;
47167;SDS011;32931;47.778;17.806;2023-11-19T11:35:55;11.50;;;8.35;;
47167;SDS011;32931;47.778;17.806;2023-11-19T11:38:52;11.30;;;8.48;;
47167;SDS011;32931;47.778;17.806;2023-11-19T11:41:24;11.52;;;8.68;;
47167;SDS011;32931;47.778;17.806;2023-11-19T11:43:52;13.05;;;8.52;;
47167;SDS011;32931;47.778;17.806;2023-11-19T11:49:03;11.95;;;9.30;;
47167;SDS011;32931;47.778;17.806;2023-11-19T11:52:15;10.52;;;8.50;;
47167;SDS011;32931;47.778;17.806;2023-11-19T11:57:04;14.40;;;9.43;;
47167;SDS011;32931;47.778;17.806;2023-11-19T12:02:16;15.60;;;10.30;;
47167;SDS011;32931;47.778;17.806;2023-11-19T12:04:48;13.55;;;9.45;;
47167;SDS011;32931;47.778;17.806;2023-11-19T12:07:20;17.35;;;10.00;;
47167;SDS011;32931;47.778;17.806;2023-11-19T12:10:08;15.15;;;9.27;;
47167;SDS011;32931;47.778;17.806;2023-11-19T12:12:34;15.93;;;9.68;;
47167;SDS011;32931;47.778;17.806;2023-11-19T12:15:04;14.10;;;9.70;;
47167;SDS011;32931;47.778;17.806;2023-11-19T12:20:07;11.80;;;8.93;;
47167;SDS011;32931;47.778;17.806;2023-11-19T12:22:43;12.23;;;9.38;;
47167;SDS011;32931;47.778;17.806;2023-11-19T12:25:11;14.90;;;9.32;;
47167;SDS011;32931;47.778;17.806;2023-11-19T12:27:41;14.95;;;9.50;;
47167;SDS011;32931;47.778;17.806;2023-11-19T12:30:09;15.07;;;10.13;;
47167;SDS011;32931;47.778;17.806;2023-11-19T12:32:38;14.38;;;9.90;;
47167;SDS011;32931;47.778;17.806;2023-11-19T12:35:08;14.27;;;11.07;;
47167;SDS011;32931;47.778;17.806;2023-11-19T12:37:39;12.48;;;8.73;;
47167;SDS011;32931;47.778;17.806;2023-11-19T12:42:40;16.77;;;10.25;;
47167;SDS011;32931;47.778;17.806;2023-11-19T12:45:07;15.63;;;10.13;;
47167;SDS011;32931;47.778;17.806;2023-11-19T12:47:36;12.95;;;9.82;;
47167;SDS011;32931;47.778;17.806;2023-11-19T12:50:03;14.82;;;10.20;;
47167;SDS011;32931;47.778;17.806;2023-11-19T12:52:30;13.10;;;9.88;;
47167;SDS011;32931;47.778;17.806;2023-11-19T12:54:56;14.23;;;10.05;;
47167;SDS011;32931;47.778;17.806;2023-11-19T12:57:42;14.70;;;8.60;;
47167;SDS011;32931;47.778;17.806;2023-11-19T13:00:18;12.27;;;8.13;;
47167;SDS011;32931;47.778;17.806;2023-11-19T13:05:22;13.82;;;7.07;;
47167;SDS011;32931;47.778;17.806;2023-11-19T13:07:48;10.85;;;6.38;;
47167;SDS011;32931;47.778;17.806;2023-11-19T13:10:14;11.57;;;6.50;;
47167;SDS011;32931;47.778;17.806;2023-11-19T13:12:41;8.80;;;6.75;;
47167;SDS011;32931;47.778;17.806;2023-11-19T13:15:22;10.45;;;7.07;;
47167;SDS011;32931;47.778;17.806;2023-11-19T13:17:49;13.73;;;7.20;;
47167;SDS011;32931;47.778;17.806;2023-11-19T13:20:16;13.05;;;7.78;;
47167;SDS011;32931;47.778;17.806;2023-11-19T13:22:53;12.40;;;7.75;;
47167;SDS011;32931;47.778;17.806;2023-11-19T13:25:23;15.60;;;7.80;;
47167;SDS011;32931;47.778;17.806;2023-11-19T13:27:49;13.70;;;7.43;;
47167;SDS011;32931;47.778;17.806;2023-11-19T13:30:15;11.38;;;7.35;;
47167;SDS011;32931;47.778;17.806;2023-11-19T13:32:42;12.57;;;7.60;;
47167;SDS011;32931;47.778;17.806;2023-11-19T13:35:10;11.80;;;7.20;;
47167;SDS011;32931;47.778;17.806;2023-11-19T13:37:36;13.32;;;8.27;;
47167;SDS011;32931;47.778;17.806;2023-11-19T13:40:02;16.35;;;8.13;;
47167;SDS011;32931;47.778;17.806;2023-11-19T13:42:28;10.63;;;7.30;;
47167;SDS011;32931;47.778;17.806;2023-11-19T13:44:54;9.52;;;6.97;;
47167;SDS011;32931;47.778;17.806;2023-11-19T13:47:22;14.32;;;8.18;;
47167;SDS011;32931;47.778;17.806;2023-11-19T13:49:49;12.73;;;7.93;;
47167;SDS011;32931;47.778;17.806;2023-11-19T13:52:15;12.90;;;7.95;;
47167;SDS011;32931;47.778;17.806;2023-11-19T13:54:42;9.57;;;7.00;;
47167;SDS011;32931;47.778;17.806;2023-11-19T13:57:08;13.18;;;7.50;;
47167;SDS011;32931;47.778;17.806;2023-11-19T13:59:39;11.60;;;7.75;;
47167;SDS011;32931;47.778;17.806;2023-11-19T14:02:07;12.95;;;8.10;;
47167;SDS011;32931;47.778;17.806;2023-11-19T14:04:33;12.48;;;7.88;;
47167;SDS011;32931;47.778;17.806;2023-11-19T14:06:59;11.95;;;9.13;;
47167;SDS011;32931;47.778;17.806;2023-11-19T14:09:25;16.33;;;8.50;;
47167;SDS011;32931;47.778;17.806;2023-11-19T14:11:51;13.30;;;8.55;;
47167;SDS011;32931;47.778;17.806;2023-11-19T14:14:17;10.00;;;7.45;;
47167;SDS011;32931;47.778;17.806;2023-11-19T14:16:43;11.75;;;7.78;;
47167;SDS011;32931;47.778;17.806;2023-11-19T14:19:10;10.63;;;7.57;;
47167;SDS011;32931;47.778;17.806;2023-11-19T14:21:36;12.82;;;7.78;;
47167;SDS011;32931;47.778;17.806;2023-11-19T14:24:02;10.68;;;7.90;;
47167;SDS011;32931;47.778;17.806;2023-11-19T14:26:28;13.75;;;9.63;;
47167;SDS011;32931;47.778;17.806;2023-11-19T14:28:54;16.13;;;9.40;;
47167;SDS011;32931;47.778;17.806;2023-11-19T14:31:20;16.08;;;9.02;;
47167;SDS011;32931;47.778;17.806;2023-11-19T14:33:47;16.38;;;8.55;;
47167;SDS011;32931;47.778;17.806;2023-11-19T14:36:14;12.65;;;8.30;;
47167;SDS011;32931;47.778;17.806;2023-11-19T14:38:40;11.45;;;7.57;;
47167;SDS011;32931;47.778;17.806;2023-11-19T14:41:06;11.35;;;7.32;;
47167;SDS011;32931;47.778;17.806;2023-11-19T14:43:33;12.05;;;7.63;;
47167;SDS011;32931;47.778;17.806;2023-11-19T14:45:59;12.77;;;7.90;;
47167;SDS011;32931;47.778;17.806;2023-11-19T14:48:28;13.25;;;8.38;;
47167;SDS011;32931;47.778;17.806;2023-11-19T14:50:55;16.55;;;11.40;;